LDZD/ZAD METAR and TAF weather

Enter ICAO airport designator
Station Type Date Time Source
LDZD METAR 2020/02/27 13:30 UTC NOAA

LDZD 271330Z 30009KT 260V330 9999 FEW045 12/M04 Q1011 NOSIG


Station Type Date Time Source
LDZD Decoded METAR 2020/02/27 13:30 UTC NOAA

Zadar / Zemunik, Croatia (LDZD) 44-06N 015-21E
Feb 27, 2020 - 08:30 AM EST / 2020.02.27 1330 UTC
Wind: from the WNW (300 degrees) at 10 MPH (9 KT) (direction variable):0
Visibility: greater than 7 mile(s):0
Sky conditions: mostly clear
Temperature: 53 F (12 C)
Dew Point: 24 F (-4 C)
Relative Humidity: 32%
Pressure (altimeter): 29.85 in. Hg (1011 hPa)
ob: LDZD 271330Z 30009KT 260V330 9999 FEW045 12/M04 Q1011 NOSIG
cycle: 13

Station Type Date Time Source
LDZD TAF 2020/02/27 12:27 UTC NOAA

TAF LDZD 271125Z 2712/2812 30008KT 9999 SCT050 TX12/2712Z TN06/2806Z
BECMG 2718/2720 19010KT
BECMG 2802/2804 32010KT PROB30
TEMPO 2803/2806 25015G25KT TSRA FEW030CB BKN040 PROB30
TEMPO 2809/2812 32015G25KT

Example: see airport list